createdAt,value
2019-03-24T00:01:42.809Z,64.20
2019-03-24T00:04:13.164Z,64.60
2019-03-24T00:06:44.309Z,65.50
2019-03-24T00:09:14.670Z,65.90
2019-03-24T00:11:45.033Z,67.30
2019-03-24T00:14:16.063Z,69.00
2019-03-24T00:16:46.844Z,70.60
2019-03-24T00:19:17.556Z,72.10
2019-03-24T00:21:48.294Z,74.30
2019-03-24T00:24:18.999Z,70.70
2019-03-24T00:26:49.708Z,69.10
2019-03-24T00:29:20.688Z,70.20
2019-03-24T00:31:51.053Z,72.30
2019-03-24T00:34:22.520Z,73.80
2019-03-24T00:36:53.335Z,74.80
2019-03-24T00:39:24.073Z,74.90
2019-03-24T00:41:54.796Z,75.50
2019-03-24T00:44:25.494Z,77.00
2019-03-24T00:46:56.104Z,78.30
2019-03-24T00:49:26.458Z,79.60
2019-03-24T00:51:57.206Z,80.90
2019-03-24T00:54:27.561Z,81.60
2019-03-24T00:56:58.600Z,83.00
2019-03-24T00:59:29.397Z,84.00
2019-03-24T01:01:59.876Z,84.30
2019-03-24T01:04:30.237Z,85.90
2019-03-24T01:07:00.854Z,87.60
2019-03-24T01:09:31.869Z,86.40
2019-03-24T01:12:02.209Z,85.70
2019-03-24T01:14:32.684Z,86.40
2019-03-24T01:17:03.998Z,84.30
2019-03-24T01:19:34.481Z,84.20
2019-03-24T01:22:05.000Z,83.70
2019-03-24T01:24:35.647Z,83.50
2019-03-24T01:27:05.972Z,80.10
2019-03-24T01:29:37.248Z,79.00
2019-03-24T01:32:07.880Z,79.00
2019-03-24T01:34:38.245Z,76.20
2019-03-24T01:37:08.966Z,74.50
2019-03-24T01:39:39.704Z,69.30
2019-03-24T01:42:10.704Z,70.70
2019-03-24T01:44:41.110Z,64.50
2019-03-24T01:47:11.456Z,62.20
2019-03-24T01:49:42.266Z,60.70
2019-03-24T01:52:12.977Z,59.30
2019-03-24T01:54:43.312Z,59.30
2019-03-24T01:57:14.134Z,59.70
2019-03-24T01:59:45.294Z,60.10
2019-03-24T02:02:15.622Z,59.20
2019-03-24T02:04:46.524Z,59.10
2019-03-24T02:07:17.284Z,59.10
2019-03-24T02:09:47.898Z,58.30
2019-03-24T02:12:18.223Z,59.00
2019-03-24T02:14:48.620Z,58.90
2019-03-24T02:17:19.208Z,59.50
2019-03-24T02:19:50.249Z,58.90
2019-03-24T02:22:20.945Z,59.20
2019-03-24T02:24:51.265Z,59.70
2019-03-24T02:27:21.988Z,60.00
2019-03-24T02:29:52.966Z,59.80
2019-03-24T02:32:23.324Z,59.80
2019-03-24T02:34:54.330Z,60.10
2019-03-24T02:37:24.944Z,61.10
2019-03-24T02:39:55.298Z,61.60
2019-03-24T02:42:25.938Z,62.10
2019-03-24T02:44:56.562Z,62.30
2019-03-24T02:47:26.915Z,63.30
2019-03-24T02:49:57.604Z,63.20
2019-03-24T02:52:28.256Z,64.00
2019-03-24T02:54:58.608Z,63.50
2019-03-24T02:57:29.527Z,63.50
2019-03-24T02:59:59.944Z,64.30
2019-03-24T03:02:30.625Z,63.80
2019-03-24T03:05:00.978Z,64.50
2019-03-24T03:07:31.649Z,65.80
2019-03-24T03:10:02.249Z,64.60
2019-03-24T03:12:32.945Z,63.10
2019-03-24T03:15:04.219Z,63.10
2019-03-24T03:17:34.569Z,62.90
2019-03-24T03:20:09.258Z,63.00
2019-03-24T03:22:39.632Z,63.10
2019-03-24T03:25:09.955Z,62.90
2019-03-24T03:27:40.651Z,63.70
2019-03-24T03:30:11.495Z,63.80
2019-03-24T03:32:41.810Z,63.50
2019-03-24T03:35:12.167Z,63.80
2019-03-24T03:37:42.516Z,64.60
2019-03-24T03:40:13.155Z,64.50
2019-03-24T03:42:43.509Z,64.40
2019-03-24T03:45:17.193Z,64.30
2019-03-24T03:47:47.845Z,64.50
2019-03-24T03:50:18.195Z,65.30
2019-03-24T03:52:48.628Z,65.20
2019-03-24T03:55:18.954Z,65.90
2019-03-24T03:57:50.185Z,66.40
2019-03-24T04:00:36.320Z,67.10
2019-03-24T04:03:07.697Z,66.40
2019-03-24T04:05:38.322Z,67.50
2019-03-24T04:08:08.979Z,67.50
2019-03-24T04:10:39.595Z,67.50
2019-03-24T04:13:10.644Z,67.50
2019-03-24T04:15:41.912Z,68.20
2019-03-24T04:18:12.686Z,68.40
2019-03-24T04:20:43.806Z,68.80
2019-03-24T04:23:14.142Z,70.40
2019-03-24T04:25:44.486Z,70.60
2019-03-24T04:28:15.202Z,70.40
2019-03-24T04:30:45.767Z,70.50
2019-03-24T04:33:16.456Z,71.60
2019-03-24T04:35:47.071Z,69.50
2019-03-24T04:38:17.804Z,69.00
2019-03-24T04:40:48.308Z,69.60
2019-03-24T04:43:18.965Z,71.70
2019-03-24T04:45:50.013Z,73.80
2019-03-24T04:48:20.657Z,76.40
2019-03-24T04:50:51.002Z,76.90
2019-03-24T04:53:22.136Z,77.30
2019-03-24T04:55:53.174Z,77.10
2019-03-24T04:58:23.499Z,77.00
2019-03-24T05:00:54.006Z,77.00
2019-03-24T05:03:24.656Z,78.10
2019-03-24T05:05:55.810Z,79.00
2019-03-24T05:08:26.339Z,79.70
2019-03-24T05:10:56.655Z,79.80
2019-03-24T05:13:27.077Z,80.40
2019-03-24T05:15:57.724Z,80.40
2019-03-24T05:18:28.143Z,82.50
2019-03-24T05:20:58.505Z,84.60
2019-03-24T05:23:28.852Z,85.40
2019-03-24T05:25:59.175Z,85.80
2019-03-24T05:28:29.796Z,86.90
2019-03-24T05:31:00.516Z,87.20
2019-03-24T05:33:30.841Z,87.10
2019-03-24T05:36:01.889Z,88.10
2019-03-24T05:38:32.650Z,88.40
2019-03-24T05:41:03.426Z,88.50
2019-03-24T05:43:34.114Z,86.60
2019-03-24T05:46:04.771Z,85.70
2019-03-24T05:48:35.120Z,85.20
2019-03-24T05:51:05.466Z,85.60
2019-03-24T05:53:35.842Z,85.60
2019-03-24T05:56:06.559Z,85.90
2019-03-24T05:58:37.055Z,86.00
2019-03-24T06:01:08.042Z,86.60
2019-03-24T06:03:39.169Z,86.20
2019-03-24T06:06:09.493Z,85.70
2019-03-24T06:08:40.119Z,85.50
2019-03-24T06:11:10.465Z,85.50
2019-03-24T06:13:41.191Z,86.30
2019-03-24T06:16:12.089Z,86.90
2019-03-24T06:18:42.413Z,87.70
2019-03-24T06:21:13.095Z,86.60
2019-03-24T06:23:44.277Z,87.10
2019-03-24T06:26:14.883Z,86.20
2019-03-24T06:28:45.236Z,85.60
2019-03-24T06:31:15.682Z,85.70
2019-03-24T06:33:46.359Z,84.30
2019-03-24T06:36:16.708Z,84.20
2019-03-24T06:38:47.071Z,81.90
2019-03-24T06:41:17.422Z,81.30
2019-03-24T06:43:48.079Z,81.80
2019-03-24T06:46:19.312Z,79.90
2019-03-24T06:48:50.266Z,78.80
2019-03-24T06:51:20.598Z,77.10
2019-03-24T06:53:51.648Z,75.00
2019-03-24T06:56:21.965Z,74.60
2019-03-24T06:58:52.287Z,72.10
2019-03-24T07:01:22.661Z,68.80
2019-03-24T07:03:53.014Z,65.10
2019-03-24T07:06:23.378Z,64.20
2019-03-24T07:08:53.853Z,62.50
2019-03-24T07:11:24.931Z,59.70
2019-03-24T07:13:55.588Z,59.10
2019-03-24T07:16:26.032Z,59.10
2019-03-24T07:18:56.831Z,58.00
2019-03-24T07:21:27.486Z,57.60
2019-03-24T07:23:57.879Z,56.10
2019-03-24T07:26:28.288Z,56.30
2019-03-24T07:28:58.979Z,55.10
2019-03-24T07:31:30.042Z,54.90
2019-03-24T07:34:00.363Z,55.40
2019-03-24T07:36:30.686Z,53.20
2019-03-24T07:39:01.322Z,53.60
2019-03-24T07:41:31.680Z,53.00
2019-03-24T07:44:02.369Z,52.30
2019-03-24T07:46:33.648Z,52.90
2019-03-24T07:49:04.005Z,52.80
2019-03-24T07:51:34.370Z,52.30
2019-03-24T07:54:04.767Z,51.60
2019-03-24T07:56:35.539Z,51.90
2019-03-24T07:59:06.892Z,52.10
2019-03-24T08:01:37.273Z,52.80
2019-03-24T08:04:07.967Z,51.80
2019-03-24T08:06:38.295Z,52.50
2019-03-24T08:09:08.646Z,52.10
2019-03-24T08:11:39.575Z,49.90
2019-03-24T08:14:10.594Z,51.10
2019-03-24T08:16:41.303Z,50.10
2019-03-24T08:19:11.664Z,49.60
2019-03-24T08:21:42.028Z,48.90
2019-03-24T08:24:12.391Z,48.10
2019-03-24T08:26:42.750Z,48.00
2019-03-24T08:29:13.446Z,47.60
2019-03-24T08:31:44.231Z,48.80
2019-03-24T08:34:14.820Z,49.10
2019-03-24T08:36:45.522Z,48.90
2019-03-24T08:39:16.210Z,48.50
2019-03-24T08:41:46.537Z,47.60
2019-03-24T08:44:17.265Z,47.60
2019-03-24T08:46:48.029Z,47.00
2019-03-24T08:49:18.368Z,46.30
2019-03-24T08:51:51.152Z,46.60
2019-03-24T08:54:21.523Z,47.50
2019-03-24T08:56:52.164Z,47.10
2019-03-24T08:59:22.814Z,47.70
2019-03-24T09:01:53.508Z,46.30
2019-03-24T09:04:23.861Z,45.30
2019-03-24T09:06:54.825Z,44.80
2019-03-24T09:09:25.555Z,43.20
2019-03-24T09:11:55.904Z,43.80
2019-03-24T09:15:09.216Z,44.40
2019-03-24T09:17:41.354Z,43.00
2019-03-24T09:20:12.173Z,41.50
2019-03-24T09:22:42.866Z,41.30
2019-03-24T09:25:13.234Z,38.00
2019-03-24T09:27:43.951Z,36.80
2019-03-24T09:30:29.644Z,36.90
2019-03-24T09:33:00.362Z,35.40
2019-03-24T09:35:30.730Z,35.20
2019-03-24T09:38:01.118Z,38.00
2019-03-24T09:40:34.008Z,36.60
2019-03-24T09:43:04.994Z,34.60
2019-03-24T09:45:35.978Z,34.00
2019-03-24T09:48:06.786Z,35.80
2019-03-24T09:50:37.655Z,35.20
2019-03-24T09:53:08.594Z,36.40
2019-03-24T09:55:39.929Z,36.60
2019-03-24T09:58:10.303Z,36.50
2019-03-24T10:00:40.987Z,35.40
2019-03-24T10:03:11.746Z,35.70
2019-03-24T10:05:42.136Z,35.00
2019-03-24T10:08:12.500Z,34.60
2019-03-24T10:10:43.342Z,34.60
2019-03-24T10:13:13.976Z,36.00
2019-03-24T10:15:44.770Z,34.40
2019-03-24T10:18:15.419Z,33.90
2019-03-24T10:20:45.791Z,33.50
2019-03-24T10:23:16.266Z,33.80
2019-03-24T10:25:46.909Z,33.90
2019-03-24T10:28:17.675Z,33.80
2019-03-24T10:30:48.711Z,33.70
2019-03-24T10:33:19.170Z,32.80
2019-03-24T10:35:49.561Z,32.10
2019-03-24T10:38:20.332Z,31.20
2019-03-24T10:40:50.703Z,32.00
2019-03-24T10:43:21.686Z,32.20
2019-03-24T10:45:52.042Z,33.20
2019-03-24T10:48:33.176Z,33.70
2019-03-24T10:50:54.842Z,33.90
2019-03-24T10:53:25.975Z,32.70
2019-03-24T10:55:56.360Z,31.60
2019-03-24T10:58:27.419Z,29.80
2019-03-24T11:00:57.881Z,29.90
2019-03-24T11:03:28.364Z,30.00
2019-03-24T11:05:58.731Z,29.70
2019-03-24T11:08:29.801Z,28.70
2019-03-24T11:11:00.798Z,28.60
2019-03-24T11:13:31.278Z,28.70
2019-03-24T11:16:01.970Z,28.80
2019-03-24T11:18:32.363Z,29.30
2019-03-24T11:21:02.733Z,27.80
2019-03-24T11:23:33.127Z,27.30
2019-03-24T11:26:03.483Z,27.70
2019-03-24T11:28:34.198Z,28.30
2019-03-24T11:31:04.548Z,26.50
2019-03-24T11:33:35.309Z,26.50
2019-03-24T11:36:05.712Z,27.20
2019-03-24T11:38:36.330Z,25.90
2019-03-24T11:41:06.691Z,25.10
2019-03-24T11:43:37.900Z,24.50
2019-03-24T11:46:08.552Z,24.80
2019-03-24T11:48:38.940Z,25.20
2019-03-24T11:51:09.741Z,25.30
2019-03-24T11:53:40.907Z,26.50
2019-03-24T11:56:11.261Z,26.60
2019-03-24T11:58:42.061Z,25.90
2019-03-24T12:01:13.374Z,26.50
2019-03-24T12:03:44.441Z,26.30
2019-03-24T12:06:15.169Z,27.20
2019-03-24T12:08:45.888Z,27.40
2019-03-24T12:11:16.534Z,26.90
2019-03-24T12:13:47.293Z,26.90
2019-03-24T12:16:17.898Z,26.90
2019-03-24T12:18:48.327Z,26.30
2019-03-24T12:21:18.711Z,26.20
2019-03-24T12:23:50.248Z,25.30
2019-03-24T12:26:20.945Z,25.60
2019-03-24T12:28:51.676Z,25.60
2019-03-24T12:31:22.415Z,25.70
2019-03-24T12:33:52.779Z,25.90
2019-03-24T12:36:23.514Z,25.90
2019-03-24T12:38:54.304Z,25.20
2019-03-24T12:41:25.151Z,24.50
2019-03-24T12:43:55.547Z,24.70
2019-03-24T12:46:25.908Z,24.50
2019-03-24T12:48:56.620Z,24.30
2019-03-24T12:51:27.249Z,24.20
2019-03-24T12:54:05.609Z,25.30
2019-03-24T12:56:35.971Z,24.40
2019-03-24T12:59:06.360Z,23.90
2019-03-24T13:01:36.699Z,22.90
2019-03-24T13:04:07.406Z,22.40
2019-03-24T13:06:37.754Z,21.80
2019-03-24T13:09:08.871Z,21.50
2019-03-24T13:11:39.655Z,22.20
2019-03-24T13:14:09.985Z,23.20
2019-03-24T13:16:40.386Z,23.20
2019-03-24T13:19:11.020Z,23.60
2019-03-24T13:21:41.397Z,23.10
2019-03-24T13:24:11.728Z,22.80
2019-03-24T13:26:42.104Z,23.30
2019-03-24T13:29:13.154Z,22.90
2019-03-24T13:31:43.879Z,22.60
2019-03-24T13:34:14.506Z,22.20
2019-03-24T13:36:45.137Z,20.30
2019-03-24T13:39:15.498Z,20.50
2019-03-24T13:41:46.266Z,20.50
2019-03-24T13:44:17.004Z,19.90
2019-03-24T13:46:47.672Z,20.30
2019-03-24T13:49:18.054Z,21.10
2019-03-24T13:51:48.417Z,20.90
2019-03-24T13:54:18.758Z,21.40
2019-03-24T13:56:49.311Z,21.40
2019-03-24T13:59:20.019Z,21.70
2019-03-24T14:01:50.970Z,21.60
2019-03-24T14:04:21.331Z,21.70
2019-03-24T14:06:52.027Z,22.30
2019-03-24T14:09:22.398Z,21.10
2019-03-24T14:11:53.095Z,21.70
2019-03-24T14:14:23.467Z,21.90
2019-03-24T14:16:54.283Z,22.40
2019-03-24T14:19:24.818Z,21.80
2019-03-24T14:21:55.226Z,22.30
2019-03-24T14:24:25.579Z,22.80
2019-03-24T14:26:55.974Z,22.80
2019-03-24T14:29:27.355Z,23.00
2019-03-24T14:31:57.689Z,23.00
2019-03-24T14:34:28.087Z,23.00
2019-03-24T14:36:58.464Z,22.70
2019-03-24T14:39:28.827Z,22.60
2019-03-24T14:41:59.993Z,22.60
2019-03-24T14:44:30.716Z,22.90
2019-03-24T14:47:01.353Z,22.70
2019-03-24T14:49:31.741Z,23.10
2019-03-24T14:52:02.807Z,22.60
2019-03-24T14:54:33.756Z,22.60
2019-03-24T14:57:04.105Z,22.90
2019-03-24T14:59:34.516Z,22.60
2019-03-24T15:02:04.880Z,22.70
2019-03-24T15:04:35.613Z,22.50
2019-03-24T15:07:06.426Z,22.70
2019-03-24T15:09:36.816Z,22.70
2019-03-24T15:12:08.006Z,23.40
2019-03-24T15:14:38.363Z,23.90
2019-03-24T15:17:09.123Z,24.30
2019-03-24T15:19:39.777Z,24.50
2019-03-24T15:22:10.455Z,24.90
2019-03-24T15:24:40.859Z,24.90
2019-03-24T15:27:11.499Z,25.20
2019-03-24T15:29:41.911Z,25.50
2019-03-24T15:32:12.264Z,25.50
2019-03-24T15:34:43.403Z,26.10
2019-03-24T15:37:14.181Z,27.30
2019-03-24T15:39:44.870Z,27.80
2019-03-24T15:42:15.253Z,28.00
2019-03-24T15:44:46.007Z,28.70
2019-03-24T15:47:17.082Z,28.90
2019-03-24T15:49:48.029Z,29.30
2019-03-24T15:52:18.409Z,29.20
2019-03-24T15:54:49.080Z,29.10
2019-03-24T15:57:19.444Z,29.00
2019-03-24T15:59:50.540Z,29.00
2019-03-24T16:02:20.980Z,29.00
2019-03-24T16:04:51.349Z,29.00
2019-03-24T16:07:22.046Z,29.00
2019-03-24T16:09:52.444Z,29.10
2019-03-24T16:12:22.785Z,29.10
2019-03-24T16:14:53.125Z,28.80
2019-03-24T16:17:23.812Z,29.00
2019-03-24T16:19:54.521Z,29.40
2019-03-24T16:22:25.003Z,29.00
2019-03-24T16:24:55.358Z,29.00
2019-03-24T16:27:26.401Z,29.00
2019-03-24T16:29:57.143Z,29.00
2019-03-24T16:32:27.561Z,29.00
2019-03-24T16:34:58.299Z,28.90
2019-03-24T16:37:29.041Z,29.50
2019-03-24T16:39:59.776Z,29.80
2019-03-24T16:42:30.737Z,29.80
2019-03-24T16:45:01.390Z,30.00
2019-03-24T16:47:31.733Z,30.00
2019-03-24T16:50:02.631Z,30.00
2019-03-24T16:52:32.993Z,30.00
2019-03-24T16:55:03.650Z,30.30
2019-03-24T16:57:34.313Z,30.20
2019-03-24T17:00:07.403Z,30.60
2019-03-24T17:02:37.767Z,30.90
2019-03-24T17:05:08.303Z,31.10
2019-03-24T17:07:38.781Z,31.20
2019-03-24T17:10:09.164Z,31.40
2019-03-24T17:12:40.448Z,32.00
2019-03-24T17:15:11.203Z,31.70
2019-03-24T17:17:41.540Z,31.70
2019-03-24T17:20:14.974Z,31.80
2019-03-24T17:22:45.651Z,31.70
2019-03-24T17:25:16.165Z,32.60
2019-03-24T17:27:46.841Z,33.00
2019-03-24T17:30:17.201Z,33.10
2019-03-24T17:32:47.596Z,33.10
2019-03-24T17:35:18.025Z,33.10
2019-03-24T17:37:48.463Z,33.60
2019-03-24T17:40:18.829Z,34.20
2019-03-24T17:42:49.557Z,34.80
2019-03-24T17:45:22.016Z,34.60
2019-03-24T17:47:52.720Z,34.60
2019-03-24T17:50:23.491Z,34.80
2019-03-24T17:52:53.866Z,34.70
2019-03-24T17:55:27.773Z,35.20
2019-03-24T17:57:56.953Z,35.30
2019-03-24T18:00:46.541Z,35.20
2019-03-24T18:03:17.197Z,35.40
2019-03-24T18:05:47.877Z,34.90
2019-03-24T18:08:18.275Z,34.80
2019-03-24T18:10:48.999Z,35.20
2019-03-24T18:13:19.361Z,35.30
2019-03-24T18:15:49.831Z,35.90
2019-03-24T18:18:20.254Z,35.60
2019-03-24T18:20:50.924Z,35.90
2019-03-24T18:23:21.970Z,36.30
2019-03-24T18:25:52.307Z,36.30
2019-03-24T18:28:22.687Z,36.20
2019-03-24T18:30:53.068Z,36.30
2019-03-24T18:33:23.400Z,36.20
2019-03-24T18:35:53.863Z,36.20
2019-03-24T18:38:24.221Z,36.50
2019-03-24T18:40:54.874Z,36.20
2019-03-24T18:43:25.281Z,36.50
2019-03-24T18:45:56.045Z,36.80
2019-03-24T18:48:26.400Z,36.80
2019-03-24T18:50:56.790Z,36.80
2019-03-24T18:53:27.119Z,36.70
2019-03-24T18:55:57.762Z,36.70
2019-03-24T18:58:28.129Z,36.70
2019-03-24T19:00:58.468Z,37.30
2019-03-24T19:03:29.221Z,37.40
2019-03-24T19:05:59.906Z,37.50
2019-03-24T19:08:30.655Z,37.80
2019-03-24T19:11:00.996Z,38.00
2019-03-24T19:13:31.391Z,38.00
2019-03-24T19:16:02.417Z,38.30
2019-03-24T19:18:33.153Z,38.60
2019-03-24T19:21:03.485Z,38.90
2019-03-24T19:23:34.461Z,39.30
2019-03-24T19:26:04.866Z,39.60
2019-03-24T19:28:35.243Z,40.10
2019-03-24T19:31:06.348Z,40.90
2019-03-24T19:33:36.817Z,40.90
2019-03-24T19:36:08.222Z,41.20
2019-03-24T19:38:38.704Z,42.00
2019-03-24T19:41:10.671Z,42.70
2019-03-24T19:43:41.488Z,43.50
2019-03-24T19:46:11.838Z,43.60
2019-03-24T19:48:42.507Z,43.70
2019-03-24T19:51:13.538Z,43.80
2019-03-24T19:53:43.941Z,44.40
2019-03-24T19:56:14.268Z,44.60
2019-03-24T19:58:44.919Z,45.10
2019-03-24T20:01:15.308Z,45.00
2019-03-24T20:03:46.416Z,45.00
2019-03-24T20:06:17.135Z,45.20
2019-03-24T20:08:47.489Z,45.80
2019-03-24T20:11:18.349Z,45.60
2019-03-24T20:13:48.772Z,45.80
2019-03-24T20:16:19.463Z,45.80
2019-03-24T20:18:50.210Z,45.80
2019-03-24T20:21:20.554Z,46.10
2019-03-24T20:23:50.926Z,46.50
2019-03-24T20:26:21.400Z,46.70
2019-03-24T20:28:52.500Z,46.60
2019-03-24T20:31:23.335Z,47.00
2019-03-24T20:33:53.779Z,47.40
2019-03-24T20:36:24.169Z,47.70
2019-03-24T20:38:54.521Z,48.20
2019-03-24T20:41:24.910Z,48.00
2019-03-24T20:43:55.975Z,47.60
2019-03-24T20:46:26.287Z,47.90
2019-03-24T20:48:57.038Z,48.00
2019-03-24T20:51:27.391Z,48.50
2019-03-24T20:53:57.895Z,48.40
2019-03-24T20:56:28.286Z,48.00
2019-03-24T20:58:59.035Z,48.50
2019-03-24T21:01:29.662Z,48.30
2019-03-24T21:04:00.540Z,48.20
2019-03-24T21:06:30.890Z,48.50
2019-03-24T21:09:01.556Z,48.40
2019-03-24T21:11:32.293Z,49.00
2019-03-24T21:14:02.902Z,48.90
2019-03-24T21:16:33.280Z,48.90
2019-03-24T21:19:03.690Z,48.90
2019-03-24T21:21:36.205Z,48.90
2019-03-24T21:24:06.427Z,49.00
2019-03-24T21:26:36.810Z,48.80
2019-03-24T21:29:07.141Z,48.80
2019-03-24T21:31:37.493Z,48.80
2019-03-24T21:34:07.892Z,48.80
2019-03-24T21:36:38.219Z,48.70
2019-03-24T21:39:09.040Z,48.70
2019-03-24T21:41:39.696Z,49.10
2019-03-24T21:44:10.395Z,48.70
2019-03-24T21:46:41.202Z,48.60
2019-03-24T21:49:12.010Z,48.60
2019-03-24T21:51:42.367Z,48.60
2019-03-24T21:54:13.091Z,49.50
2019-03-24T21:56:43.508Z,49.70
2019-03-24T21:59:13.884Z,49.90
2019-03-24T22:01:44.527Z,49.90
2019-03-24T22:04:14.902Z,50.30
2019-03-24T22:06:45.619Z,49.80
2019-03-24T22:09:16.020Z,49.80
2019-03-24T22:11:46.678Z,49.40
2019-03-24T22:14:17.418Z,50.20
2019-03-24T22:16:48.348Z,49.70
2019-03-24T22:19:19.134Z,49.90
2019-03-24T22:21:49.839Z,50.20
2019-03-24T22:24:20.656Z,50.20
2019-03-24T22:26:51.031Z,50.10
2019-03-24T22:29:21.722Z,50.50
2019-03-24T22:31:52.132Z,50.80
2019-03-24T22:34:22.487Z,51.20
2019-03-24T22:36:52.963Z,51.00
2019-03-24T22:39:24.077Z,51.10
2019-03-24T22:41:54.435Z,51.30
2019-03-24T22:44:24.834Z,51.80
2019-03-24T22:46:55.165Z,51.90
2019-03-24T22:49:26.099Z,52.40
2019-03-24T22:52:06.891Z,52.40
2019-03-24T22:54:28.551Z,52.70
2019-03-24T22:56:59.082Z,52.70
2019-03-24T22:59:29.675Z,52.70
2019-03-24T23:02:00.689Z,52.70
2019-03-24T23:04:31.316Z,53.30
2019-03-24T23:07:02.659Z,53.50
2019-03-24T23:09:33.135Z,53.60
2019-03-24T23:12:04.445Z,53.80
2019-03-24T23:14:35.084Z,53.70
2019-03-24T23:17:05.934Z,53.90
2019-03-24T23:19:36.363Z,54.00
2019-03-24T23:22:06.832Z,53.90
2019-03-24T23:24:37.526Z,54.30
2019-03-24T23:27:08.279Z,54.80
2019-03-24T23:29:38.877Z,55.20
2019-03-24T23:32:09.236Z,55.40
2019-03-24T23:34:40.088Z,55.50
2019-03-24T23:37:10.819Z,55.40
2019-03-24T23:39:41.435Z,55.40
2019-03-24T23:42:11.809Z,55.50
2019-03-24T23:44:42.915Z,55.40
2019-03-24T23:47:13.655Z,55.10
2019-03-24T23:49:44.674Z,55.00
2019-03-24T23:52:15.424Z,55.40
2019-03-24T23:54:45.810Z,54.60
2019-03-24T23:57:16.137Z,54.90
2019-03-24T23:59:46.459Z,54.50
